Time;durP1;ratioP1;P1;durP2;ratioP2;P2;SDS_P1;SDS_P2;PMS_P1;PMS_P2;Temp;Humidity;BMP_temperature;BMP_pressure;BME280_temperature;BME280_humidity;BME280_pressure;Samples;Min_cycle;Max_cycle;Signal;HPM_P1;HPM_P2
2022/10/26 00:04:01;;;;;;;3.30;1.70;;;15.00;99.90;;;;;;4796006;29;20521;-84
2022/10/26 00:13:52;;;;;;;3.17;1.90;;;14.80;99.90;;;;;;1209556;26;20801;-83
2022/10/26 00:17:24;;;;;;;3.80;1.70;;;14.70;99.90;;;;;;5038588;28;20848;-83
2022/10/26 00:20:31;;;;;;;;;;;;;;;;;;;;;
2022/10/26 00:27:38;;;;;;;3.03;1.60;;;15.00;99.90;;;;;;4961237;28;20440;-85
2022/10/26 00:37:22;;;;;;;1.40;1.27;;;15.00;99.90;;;;;;4172901;26;20596;-84
2022/10/26 00:40:31;;;;;;;1.63;1.53;;;14.70;99.90;;;;;;4957846;28;20523;-84
2022/10/26 00:44:14;;;;;;;3.30;1.90;;;14.90;99.90;;;;;;4955531;28;20481;-85
2022/10/26 00:51:21;;;;;;;3.53;1.53;;;15.10;99.90;;;;;;5102059;23;20652;-83
2022/10/26 00:55:24;;;;;;;;;;;;;;;;;;;;;
2022/10/26 00:58:29;;;;;;;3.20;1.80;;;15.10;99.90;;;;;;4922141;28;20468;-84
2022/10/26 01:01:19;;;;;;;3.30;1.60;;;15.10;99.90;;;;;;4940168;28;20506;-83
2022/10/26 01:04:19;;;;;;;;;;;;;;;;;;;;;
2022/10/26 01:07:27;;;;;;;2.70;1.40;;;15.20;99.90;;;;;;4948896;28;20570;-83
2022/10/26 01:10:54;;;;;;;2.67;1.67;;;15.00;99.90;;;;;;4934185;28;20496;-83
2022/10/26 01:14:06;;;;;;;2.93;1.53;;;15.00;99.90;;;;;;4934644;28;20468;-84
2022/10/26 01:17:38;;;;;;;2.20;2.00;;;15.00;99.90;;;;;;4907885;29;20464;-84
2022/10/26 01:24:39;;;;;;;2.70;1.70;;;15.00;99.90;;;;;;4903514;29;20548;-84
2022/10/26 01:28:20;;;;;;;2.13;1.47;;;15.00;99.90;;;;;;4900143;29;20468;-84
2022/10/26 01:31:57;;;;;;;1.20;1.10;;;15.00;99.90;;;;;;4952501;28;20531;-84
2022/10/26 01:34:55;;;;;;;3.80;1.60;;;15.00;99.90;;;;;;4973713;28;20493;-83
2022/10/26 01:38:23;;;;;;;3.27;1.30;;;15.00;99.90;;;;;;4967177;28;20474;-83
2022/10/26 01:41:29;;;;;;;3.50;1.50;;;15.00;99.90;;;;;;4958231;28;20488;-84
2022/10/26 01:44:52;;;;;;;2.00;1.63;;;14.90;99.90;;;;;;4978039;28;20540;-84
2022/10/26 01:54:54;;;;;;;2.67;1.23;;;14.90;99.90;;;;;;5009711;28;20461;-81
2022/10/26 01:58:12;;;;;;;4.53;1.47;;;15.10;99.90;;;;;;5016792;28;20461;-83
2022/10/26 02:01:32;;;;;;;3.53;1.50;;;15.00;99.90;;;;;;4965647;28;20533;-82
2022/10/26 02:04:55;;;;;;;1.70;1.33;;;15.10;99.90;;;;;;4985236;28;20983;-84
2022/10/26 02:08:25;;;;;;;1.73;1.50;;;15.10;99.90;;;;;;4982003;28;20453;-83
2022/10/26 02:11:38;;;;;;;3.17;1.90;;;15.00;99.90;;;;;;4996943;28;20531;-81
2022/10/26 02:14:58;;;;;;;2.90;1.40;;;15.10;99.90;;;;;;5000592;28;20997;-81
2022/10/26 02:18:39;;;;;;;3.30;1.90;;;15.10;99.90;;;;;;4995747;28;20464;-84
2022/10/26 02:24:55;;;;;;;3.23;2.10;;;15.10;99.90;;;;;;5013752;28;20462;-83
2022/10/26 02:31:18;;;;;;;5.00;1.90;;;15.20;99.90;;;;;;5027229;28;20492;-84
2022/10/26 02:34:42;;;;;;;2.30;1.43;;;15.20;99.90;;;;;;4871707;29;20479;-83
2022/10/26 02:37:43;;;;;;;2.33;1.10;;;15.20;99.90;;;;;;4928974;28;20478;-83
2022/10/26 02:44:30;;;;;;;2.90;1.70;;;15.10;99.90;;;;;;4913266;28;20455;-84
2022/10/26 02:47:20;;;;;;;2.40;1.33;;;15.10;99.90;;;;;;4925047;28;20739;-84
2022/10/26 02:50:17;;;;;;;3.13;1.70;;;15.20;99.90;;;;;;4923882;29;20549;-83
2022/10/26 02:54:06;;;;;;;5.33;1.93;;;15.10;99.90;;;;;;4939996;28;20460;-85
2022/10/26 02:56:59;;;;;;;3.60;1.83;;;15.10;99.90;;;;;;4936588;28;20546;-84
2022/10/26 03:04:37;;;;;;;2.50;1.87;;;14.90;99.90;;;;;;4835952;29;20902;-85
2022/10/26 03:07:43;;;;;;;3.70;1.67;;;14.90;99.90;;;;;;4779304;29;20461;-85
2022/10/26 03:14:36;;;;;;;3.37;2.30;;;14.80;99.90;;;;;;4867466;29;20471;-84
2022/10/26 03:18:10;;;;;;;1.63;1.53;;;14.80;99.90;;;;;;4785899;29;20474;-84
2022/10/26 03:24:53;;;;;;;4.33;2.43;;;15.40;99.90;;;;;;4783182;29;20483;-82
2022/10/26 03:27:46;;;;;;;2.97;2.40;;;15.60;99.90;;;;;;4770384;30;20558;-83
2022/10/26 03:30:40;;;;;;;;;;;;;;;;;;;;;
2022/10/26 03:37:11;;;;;;;3.87;2.00;;;15.30;99.90;;;;;;4782102;29;21206;-84
2022/10/26 03:44:06;;;;;;;1.70;1.60;;;15.20;99.90;;;;;;4932114;28;20483;-86
2022/10/26 03:47:16;;;;;;;4.70;2.27;;;15.20;99.90;;;;;;5001302;28;21253;-84
2022/10/26 03:53:41;;;;;;;2.53;1.40;;;15.30;99.90;;;;;;4916753;29;20711;-85
2022/10/26 03:59:56;;;;;;;1.97;1.50;;;15.60;99.90;;;;;;4959219;28;20574;-82
2022/10/26 04:03:26;;;;;;;3.20;1.77;;;15.50;99.90;;;;;;4958024;28;20509;-83
2022/10/26 04:06:25;;;;;;;3.43;1.60;;;15.60;99.90;;;;;;4953719;28;20425;-82
2022/10/26 04:13:33;;;;;;;5.77;1.77;;;15.50;99.90;;;;;;5000414;28;20857;-83
2022/10/26 04:20:30;;;;;;;2.87;1.60;;;15.60;99.90;;;;;;4912129;29;20513;-83
2022/10/26 04:23:32;;;;;;;3.10;1.70;;;15.70;99.90;;;;;;4878358;29;20450;-84
2022/10/26 04:26:35;;;;;;;3.00;1.53;;;15.50;99.90;;;;;;4986901;28;20480;-82
2022/10/26 04:30:10;;;;;;;3.63;2.00;;;15.60;99.90;;;;;;4988075;28;20477;-81
2022/10/26 04:32:44;;;;;;;3.13;1.70;;;15.70;99.90;;;;;;4988017;28;20453;-82
2022/10/26 04:35:30;;;;;;;2.87;1.97;;;15.80;99.90;;;;;;4994255;28;20457;-83
2022/10/26 04:40:43;;;;;;;3.50;1.50;;;15.70;99.90;;;;;;5033064;28;20490;-84
2022/10/26 04:43:35;;;;;;;2.90;1.70;;;15.70;99.90;;;;;;5022946;28;20459;-82
2022/10/26 04:46:25;;;;;;;2.80;1.57;;;15.60;99.90;;;;;;5025516;28;20455;-83
2022/10/26 04:51:56;;;;;;;2.17;1.53;;;15.50;99.90;;;;;;5001886;28;20523;-83
2022/10/26 04:55:11;;;;;;;3.43;1.60;;;15.60;99.90;;;;;;5001378;28;21214;-81
2022/10/26 04:58:13;;;;;;;1.90;1.80;;;15.70;99.90;;;;;;5017276;28;20520;-84
2022/10/26 05:01:05;;;;;;;;;;;;;;;;;;;;;
2022/10/26 05:03:43;;;;;;;3.20;2.13;;;15.60;99.90;;;;;;5021673;28;20464;-85
2022/10/26 05:06:22;;;;;;;3.60;2.00;;;15.70;99.90;;;;;;5006438;28;20464;-85
2022/10/26 05:12:12;;;;;;;;;;;;;;;;;;;;;
2022/10/26 05:14:57;;;;;;;2.70;1.97;;;15.80;99.90;;;;;;5006152;28;20468;-83
2022/10/26 05:23:54;;;;;;;13.10;3.23;;;15.80;99.90;;;;;;5001200;28;21452;-84
2022/10/26 05:26:43;;;;;;;1.50;1.40;;;15.80;99.90;;;;;;4987123;28;20448;-85
2022/10/26 05:32:40;;;;;;;8.10;1.83;;;15.90;99.90;;;;;;5033943;28;20625;-85
2022/10/26 05:35:37;;;;;;;9.10;2.00;;;15.90;99.90;;;;;;5024095;28;20462;-84
2022/10/26 05:42:29;;;;;;;2.67;1.70;;;16.00;99.90;;;;;;5009553;28;20458;-83
2022/10/26 05:45:33;;;;;;;3.27;2.17;;;16.00;99.90;;;;;;5014498;28;21925;-83
2022/10/26 05:48:59;;;;;;;;;;;;;;;;;;;;;
2022/10/26 05:52:14;;;;;;;2.40;1.63;;;15.90;99.90;;;;;;5023926;28;20500;-84
2022/10/26 05:55:39;;;;;;;1.77;1.63;;;16.00;99.90;;;;;;5011396;28;20448;-84
2022/10/26 05:59:05;;;;;;;2.60;1.90;;;15.90;99.90;;;;;;4999900;28;20479;-84
2022/10/26 06:02:44;;;;;;;5.30;1.93;;;16.00;99.90;;;;;;4935020;28;20433;-84
2022/10/26 06:05:32;;;;;;;2.70;1.93;;;16.10;99.90;;;;;;4960607;28;20471;-85
2022/10/26 06:08:47;;;;;;;2.90;1.83;;;16.20;99.90;;;;;;5005535;28;20573;-84
2022/10/26 06:11:39;;;;;;;2.57;1.97;;;15.80;99.90;;;;;;5023676;28;20519;-84
2022/10/26 06:14:24;;;;;;;3.97;1.87;;;15.90;99.90;;;;;;5024212;28;20571;-84
2022/10/26 06:17:34;;;;;;;5.50;2.17;;;15.90;99.90;;;;;;4958226;28;21142;-82
2022/10/26 06:20:54;;;;;;;4.60;1.70;;;15.70;99.90;;;;;;5062875;23;20714;-83
2022/10/26 06:23:49;;;;;;;25.80;15.07;;;15.90;99.90;;;;;;5017576;28;20462;-84
2022/10/26 06:26:43;;;;;;;3.00;1.97;;;16.10;99.90;;;;;;5018983;28;20982;-83
2022/10/26 06:29:21;;;;;;;2.27;1.60;;;16.00;99.90;;;;;;5018133;28;21401;-83
2022/10/26 06:31:59;;;;;;;2.50;2.20;;;15.90;99.90;;;;;;5001768;28;20481;-84
2022/10/26 06:34:36;;;;;;;2.63;1.83;;;15.70;99.90;;;;;;5003902;28;20492;-84
2022/10/26 06:37:29;;;;;;;2.70;1.67;;;15.70;99.90;;;;;;4992350;28;20463;-83
2022/10/26 06:40:32;;;;;;;5.40;2.07;;;15.90;99.90;;;;;;4999507;28;21056;-83
2022/10/26 06:43:07;;;;;;;5.00;3.13;;;15.90;99.90;;;;;;5018992;28;20459;-84
2022/10/26 06:45:47;;;;;;;3.67;2.30;;;15.80;99.90;;;;;;4998315;28;20487;-84
2022/10/26 06:48:41;;;;;;;3.70;2.47;;;15.90;99.90;;;;;;4996941;28;20472;-84
2022/10/26 06:52:09;;;;;;;2.53;1.77;;;15.90;99.90;;;;;;5008202;28;21053;-84
2022/10/26 06:55:34;;;;;;;4.03;2.00;;;15.80;99.90;;;;;;4993792;28;20447;-83
2022/10/26 06:58:22;;;;;;;2.60;1.77;;;15.80;99.90;;;;;;5008408;28;20471;-83
2022/10/26 07:01:05;;;;;;;4.10;2.17;;;15.70;99.90;;;;;;5009491;28;20473;-83
2022/10/26 07:04:17;;;;;;;2.27;2.07;;;15.60;99.90;;;;;;5014805;28;20462;-82
2022/10/26 07:07:19;;;;;;;4.87;2.10;;;15.40;99.90;;;;;;4996764;28;20482;-83
2022/10/26 07:10:21;;;;;;;5.97;2.60;;;15.40;99.90;;;;;;5004481;28;20898;-83
2022/10/26 07:13:21;;;;;;;5.03;2.20;;;15.50;99.90;;;;;;5014160;28;20444;-82
2022/10/26 07:16:08;;;;;;;8.50;3.03;;;15.60;99.90;;;;;;5020954;28;20464;-83
2022/10/26 07:18:56;;;;;;;3.80;2.40;;;15.50;99.90;;;;;;5023647;28;20547;-83
2022/10/26 07:21:36;;;;;;;3.83;2.67;;;15.30;99.90;;;;;;4998808;28;20540;-85
2022/10/26 07:24:23;;;;;;;5.90;2.50;;;15.30;99.90;;;;;;5006657;28;20480;-84
2022/10/26 07:30:38;;;;;;;4.23;2.43;;;15.70;99.90;;;;;;5005863;28;20468;-84
2022/10/26 07:33:47;;;;;;;3.57;2.33;;;15.60;99.90;;;;;;4903621;29;20447;-84
2022/10/26 07:36:42;;;;;;;3.43;1.97;;;15.70;99.90;;;;;;4946496;28;20457;-85
2022/10/26 07:39:21;;;;;;;5.33;2.87;;;15.90;99.90;;;;;;5022609;28;20484;-83
2022/10/26 07:42:17;;;;;;;6.00;2.20;;;15.90;99.90;;;;;;5003284;28;21071;-85
2022/10/26 07:45:40;;;;;;;4.07;2.47;;;15.80;99.90;;;;;;4995639;28;20461;-84
2022/10/26 07:48:38;;;;;;;7.13;4.00;;;15.80;99.90;;;;;;4997091;28;20490;-85
2022/10/26 07:51:17;;;;;;;3.40;2.80;;;15.70;99.90;;;;;;5013994;28;20512;-84
2022/10/26 07:54:16;;;;;;;4.33;2.60;;;15.70;99.90;;;;;;5003575;28;20525;-83
2022/10/26 07:56:53;;;;;;;5.47;2.40;;;15.80;99.90;;;;;;5010800;28;20518;-84
2022/10/26 08:02:52;;;;;;;6.57;2.90;;;15.90;99.90;;;;;;5005739;28;20446;-84
2022/10/26 08:05:56;;;;;;;;;;;;;;;;;;;;;
2022/10/26 08:09:12;;;;;;;2.50;2.10;;;15.80;99.90;;;;;;4976155;28;21735;-83
2022/10/26 08:12:21;;;;;;;;;;;;;;;;;;;;;
2022/10/26 08:15:09;;;;;;;3.60;2.53;;;15.80;99.90;;;;;;4997364;28;20437;-83
2022/10/26 08:20:56;;;;;;;3.20;2.50;;;16.60;99.90;;;;;;3183716;26;20475;-83
2022/10/26 08:23:38;;;;;;;3.33;2.60;;;16.50;99.90;;;;;;5021122;28;20543;-83
2022/10/26 08:26:17;;;;;;;6.33;2.53;;;16.50;99.90;;;;;;5020765;28;20626;-84
2022/10/26 08:28:59;;;;;;;2.73;2.53;;;16.40;99.90;;;;;;4999551;28;20489;-84
2022/10/26 08:31:52;;;;;;;;;;;;;;;;;;;;;
2022/10/26 08:34:31;;;;;;;10.03;3.40;;;16.60;99.90;;;;;;5018663;28;20515;-85
2022/10/26 08:37:10;;;;;;;3.17;1.90;;;16.40;99.90;;;;;;5012439;28;20453;-85
2022/10/26 08:39:47;;;;;;;5.33;2.60;;;16.50;99.90;;;;;;5005079;28;20508;-84
2022/10/26 08:42:40;;;;;;;1.97;1.87;;;16.80;99.90;;;;;;5008647;28;20445;-83
2022/10/26 08:45:50;;;;;;;3.10;2.83;;;17.00;99.90;;;;;;5010728;28;20706;-83
2022/10/26 08:48:51;;;;;;;9.80;2.87;;;17.10;99.90;;;;;;5011330;28;20481;-85
2022/10/26 08:55:06;;;;;;;3.47;2.57;;;17.30;99.90;;;;;;5021320;28;20465;-84
2022/10/26 08:58:12;;;;;;;8.13;1.90;;;17.20;99.90;;;;;;5022026;28;20429;-82
2022/10/26 09:00:58;;;;;;;4.43;2.47;;;17.30;99.90;;;;;;4993733;28;20454;-82
2022/10/26 09:03:34;;;;;;;2.60;1.57;;;17.40;99.90;;;;;;4992405;28;20485;-84
2022/10/26 09:06:37;;;;;;;4.00;2.30;;;17.40;99.90;;;;;;4989755;28;20508;-83
2022/10/26 09:09:35;;;;;;;1.50;1.40;;;17.40;99.90;;;;;;4995663;28;21030;-83
2022/10/26 09:12:25;;;;;;;2.60;2.40;;;17.40;99.90;;;;;;4987894;28;20487;-83
2022/10/26 09:15:24;;;;;;;3.67;2.10;;;17.30;99.90;;;;;;4937677;28;21042;-83
2022/10/26 09:18:26;;;;;;;10.30;2.40;;;17.30;99.90;;;;;;4949781;28;20455;-83
2022/10/26 09:22:06;;;;;;;2.30;2.10;;;17.40;99.90;;;;;;4941732;28;20469;-84
2022/10/26 09:25:20;;;;;;;3.63;2.10;;;17.50;99.90;;;;;;4944626;28;20445;-83
2022/10/26 09:31:09;;;;;;;2.63;2.40;;;17.80;99.90;;;;;;4777501;26;20926;-84
2022/10/26 09:34:05;;;;;;;2.20;1.80;;;18.10;99.90;;;;;;5005989;28;20463;-83
2022/10/26 09:36:59;;;;;;;1.93;1.77;;;19.10;99.90;;;;;;5006324;28;20557;-84
2022/10/26 09:40:20;;;;;;;3.93;2.10;;;19.70;98.20;;;;;;5004437;28;20513;-83
2022/10/26 09:43:50;;;;;;;;;;;;;;;;;;;;;
2022/10/26 09:46:54;;;;;;;4.60;1.90;;;22.70;93.30;;;;;;5015545;28;20489;-83
2022/10/26 09:50:10;;;;;;;3.00;2.70;;;22.10;93.10;;;;;;5026387;22;20597;-81
2022/10/26 09:52:47;;;;;;;4.53;2.47;;;21.00;95.40;;;;;;4987436;28;20489;-82
2022/10/26 09:55:27;;;;;;;3.20;2.00;;;20.90;96.30;;;;;;5007213;28;20544;-83
2022/10/26 09:58:25;;;;;;;4.83;2.10;;;20.50;96.60;;;;;;4989811;28;20796;-83
2022/10/26 10:00:58;;;;;;;2.50;2.30;;;19.90;97.40;;;;;;5009315;28;20497;-83
2022/10/26 10:03:33;;;;;;;3.90;2.17;;;19.50;98.40;;;;;;5008204;28;20502;-83
2022/10/26 10:06:36;;;;;;;5.00;2.60;;;19.30;99.10;;;;;;4993468;28;20941;-83
2022/10/26 10:09:27;;;;;;;8.53;2.53;;;19.20;99.70;;;;;;4994518;28;20481;-83
2022/10/26 10:12:41;;;;;;;3.60;2.10;;;19.20;99.90;;;;;;4973820;28;20486;-83
2022/10/26 11:03:57;;;;;;;2.17;1.97;;;20.20;99.50;;;;;;5006806;28;20454;-84
2022/10/26 11:07:11;;;;;;;4.00;2.60;;;20.40;99.00;;;;;;5009489;28;20462;-83
2022/10/26 11:10:16;;;;;;;3.70;2.40;;;20.40;98.80;;;;;;5012946;28;20495;-81
2022/10/26 11:13:47;;;;;;;3.30;2.30;;;20.40;98.80;;;;;;5002638;28;20493;-82
2022/10/26 11:20:56;;;;;;;;;;;;;;;;;;;;;
2022/10/26 11:28:04;;;;;;;8.27;2.30;;;20.80;98.50;;;;;;5003775;28;20566;-83
2022/10/26 11:30:56;;;;;;;1.77;1.67;;;20.80;98.40;;;;;;4985411;28;20465;-83
2022/10/26 11:34:34;;;;;;;2.90;1.97;;;20.60;99.20;;;;;;5000130;28;20920;-84
2022/10/26 11:37:49;;;;;;;2.70;2.00;;;20.70;99.60;;;;;;4981361;28;20469;-83
2022/10/26 11:41:06;;;;;;;2.50;1.77;;;20.70;99.00;;;;;;4990601;28;20468;-84
2022/10/26 11:44:10;;;;;;;1.87;1.10;;;20.90;97.30;;;;;;5000341;28;20513;-83
2022/10/26 11:47:00;;;;;;;2.03;1.20;;;21.00;96.80;;;;;;5005485;28;20457;-84
2022/10/26 11:49:55;;;;;;;2.10;1.10;;;20.90;96.30;;;;;;4988470;28;20493;-83
2022/10/26 11:52:48;;;;;;;5.93;1.07;;;20.80;96.20;;;;;;4985120;28;20954;-83
2022/10/26 11:55:25;;;;;;;1.40;1.03;;;20.80;96.30;;;;;;4987527;28;20644;-84
2022/10/26 11:57:53;;;;;;;1.37;0.83;;;20.80;96.10;;;;;;5016325;28;20542;-82
2022/10/26 12:00:26;;;;;;;3.47;0.90;;;20.80;96.20;;;;;;5021178;28;20506;-82
2022/10/26 12:03:25;;;;;;;2.17;0.97;;;20.90;96.10;;;;;;5011919;28;20925;-81
2022/10/26 12:06:35;;;;;;;3.30;1.33;;;20.80;96.30;;;;;;4965025;28;20545;-83
2022/10/26 12:09:45;;;;;;;1.63;1.30;;;20.90;96.10;;;;;;5016509;23;22228;-82
2022/10/26 12:13:32;;;;;;;;;;;;;;;;;;;;;
2022/10/26 12:16:48;;;;;;;1.33;0.70;;;21.40;95.10;;;;;;4969303;28;21050;-82
2022/10/26 12:19:49;;;;;;;1.67;1.50;;;21.40;94.60;;;;;;4990726;28;20539;-82
2022/10/26 12:22:52;;;;;;;2.53;1.10;;;21.40;95.10;;;;;;5006419;28;20462;-83
2022/10/26 12:26:13;;;;;;;1.30;0.90;;;21.90;94.10;;;;;;5001727;28;20517;-84
2022/10/26 12:29:06;;;;;;;3.40;0.90;;;21.90;93.70;;;;;;4997936;28;20479;-84
2022/10/26 12:32:33;;;;;;;2.13;1.10;;;21.60;94.30;;;;;;5003082;28;20462;-84
2022/10/26 12:39:24;;;;;;;1.57;1.10;;;21.40;94.90;;;;;;4990064;28;20483;-85
2022/10/26 12:42:42;;;;;;;2.50;1.00;;;21.60;95.00;;;;;;4957593;28;20462;-82
2022/10/26 12:52:15;;;;;;;1.70;1.03;;;21.60;94.60;;;;;;5034938;28;20535;-83
2022/10/26 12:55:50;;;;;;;2.80;1.20;;;21.60;94.60;;;;;;4995888;28;20441;-84
2022/10/26 12:59:02;;;;;;;7.30;1.30;;;21.80;94.60;;;;;;5012875;28;20511;-84
2022/10/26 13:02:20;;;;;;;2.37;1.10;;;21.90;94.30;;;;;;5009010;28;20463;-85
2022/10/26 13:09:42;;;;;;;2.23;1.40;;;21.80;94.50;;;;;;4998311;28;20423;-83
2022/10/26 13:16:40;;;;;;;2.90;1.03;;;22.10;93.80;;;;;;4992374;28;20455;-84
2022/10/26 13:20:19;;;;;;;1.20;1.10;;;22.00;93.70;;;;;;5008442;28;20492;-84
2022/10/26 13:23:27;;;;;;;1.43;1.00;;;22.00;93.20;;;;;;5026382;28;20496;-84
2022/10/26 13:26:39;;;;;;;3.87;0.87;;;21.80;92.10;;;;;;5021442;28;20608;-83
2022/10/26 13:29:50;;;;;;;2.03;0.80;;;21.90;92.10;;;;;;4994489;28;20563;-82
2022/10/26 13:33:42;;;;;;;;;;;;;;;;;;;;;
2022/10/26 13:40:33;;;;;;;2.03;0.90;;;22.20;90.40;;;;;;5009318;28;20477;-84
2022/10/26 13:43:53;;;;;;;2.00;1.00;;;22.30;90.10;;;;;;4999016;28;20442;-84
2022/10/26 13:47:06;;;;;;;1.47;0.80;;;22.10;89.60;;;;;;4996948;28;20495;-84
2022/10/26 13:50:40;;;;;;;2.83;0.87;;;22.10;89.40;;;;;;5025071;23;20555;-84
2022/10/26 13:54:17;;;;;;;2.83;1.10;;;22.00;88.70;;;;;;4955610;28;20485;-83
2022/10/26 13:57:45;;;;;;;0.80;0.70;;;21.80;89.10;;;;;;4987724;28;20457;-84
2022/10/26 14:00:48;;;;;;;1.90;1.40;;;21.70;89.30;;;;;;4989667;28;20488;-85
2022/10/26 14:07:48;;;;;;;1.50;0.90;;;21.80;88.70;;;;;;5010173;28;20448;-84
2022/10/26 14:14:01;;;;;;;3.13;2.10;;;22.10;87.00;;;;;;4985017;28;20553;-83
2022/10/26 14:19:50;;;;;;;3.20;0.97;;;21.80;88.60;;;;;;4980088;28;20549;-83
2022/10/26 14:22:36;;;;;;;1.13;0.90;;;22.10;87.30;;;;;;4917235;29;20532;-84
2022/10/26 14:26:01;;;;;;;1.30;0.60;;;22.30;85.10;;;;;;4908388;29;20452;-83
2022/10/26 14:29:24;;;;;;;2.80;1.80;;;22.20;85.70;;;;;;4921161;29;20486;-83
2022/10/26 14:36:07;;;;;;;2.70;0.90;;;21.90;85.90;;;;;;4960266;28;20499;-84
2022/10/26 14:39:34;;;;;;;1.37;0.87;;;22.10;85.10;;;;;;4940819;29;20528;-84
2022/10/26 14:43:04;;;;;;;3.23;1.27;;;22.50;83.20;;;;;;4939962;29;20480;-84
2022/10/26 14:45:58;;;;;;;1.50;1.07;;;22.10;84.50;;;;;;4937691;29;20461;-83
2022/10/26 14:48:56;;;;;;;1.30;1.17;;;21.80;86.20;;;;;;4919193;29;20472;-84
2022/10/26 14:55:36;;;;;;;;;;;;;;;;;;;;;
2022/10/26 14:58:41;;;;;;;4.07;1.93;;;21.60;87.10;;;;;;4987909;28;20514;-84
2022/10/26 15:02:05;;;;;;;5.10;1.17;;;21.70;86.90;;;;;;4953377;28;20495;-84
2022/10/26 15:05:16;;;;;;;0.80;0.80;;;21.60;86.60;;;;;;4956995;28;20452;-84
2022/10/26 15:08:30;;;;;;;4.17;1.00;;;21.40;87.40;;;;;;4979219;28;20536;-83
2022/10/26 15:12:16;;;;;;;;;;;;;;;;;;;;;
2022/10/26 15:15:44;;;;;;;2.10;1.20;;;21.80;86.30;;;;;;4985656;28;20478;-84
2022/10/26 15:35:57;;;;;;;;;;;;;;;;;;;;;
2022/10/26 15:39:26;;;;;;;3.97;3.53;;;21.00;91.20;;;;;;4986811;28;20447;-85
2022/10/26 15:46:07;;;;;;;4.07;2.70;;;20.70;91.90;;;;;;4973535;28;20430;-83
2022/10/26 15:49:42;;;;;;;7.30;3.43;;;20.70;92.60;;;;;;4964689;28;20829;-85
2022/10/26 15:56:49;;;;;;;;;;;;;;;;;;;;;
2022/10/26 16:00:31;;;;;;;8.50;6.60;;;20.30;93.80;;;;;;4963951;28;20452;-84
2022/10/26 16:03:41;;;;;;;;;;;;;;;;;;;;;
2022/10/26 16:07:10;;;;;;;3.60;2.40;;;20.30;94.10;;;;;;4980518;28;20509;-81
2022/10/26 16:10:43;;;;;;;4.53;2.23;;;20.30;93.90;;;;;;4920533;28;20470;-82
2022/10/26 16:16:51;;;;;;;5.00;3.30;;;20.10;93.70;;;;;;4987158;28;20460;-83
2022/10/26 16:19:40;;;;;;;7.27;3.03;;;20.10;94.50;;;;;;4965842;28;20483;-83
2022/10/26 16:22:34;;;;;;;3.87;2.30;;;20.00;94.70;;;;;;4967502;28;20870;-84
2022/10/26 16:25:44;;;;;;;8.47;5.83;;;20.00;94.80;;;;;;4972688;28;20505;-84
2022/10/26 16:32:32;;;;;;;7.20;3.23;;;19.80;95.20;;;;;;4968458;28;20522;-84
2022/10/26 16:35:56;;;;;;;5.47;2.93;;;19.70;95.50;;;;;;4916148;29;20478;-83
2022/10/26 16:39:09;;;;;;;6.20;3.77;;;19.70;95.80;;;;;;4944306;28;20455;-83
2022/10/26 16:42:15;;;;;;;9.83;7.00;;;19.70;96.00;;;;;;4926092;28;20507;-84
2022/10/26 16:45:07;;;;;;;8.87;5.43;;;19.50;96.10;;;;;;4934018;29;20463;-84
2022/10/26 16:51:34;;;;;;;6.30;3.70;;;19.40;96.70;;;;;;4892013;29;20584;-85
2022/10/26 16:54:44;;;;;;;7.53;4.00;;;19.40;96.90;;;;;;4904631;29;20876;-84
2022/10/26 17:01:51;;;;;;;10.97;6.50;;;19.30;97.10;;;;;;4921503;29;20457;-83
2022/10/26 17:05:25;;;;;;;4.80;4.10;;;19.30;97.10;;;;;;4875210;29;20456;-83
2022/10/26 17:08:13;;;;;;;5.33;4.40;;;19.20;97.30;;;;;;4865662;29;20483;-83
2022/10/26 17:11:54;;;;;;;5.30;3.70;;;19.20;97.50;;;;;;4880841;29;20439;-84
2022/10/26 17:14:52;;;;;;;5.17;3.00;;;19.10;97.40;;;;;;4856049;29;20563;-84
2022/10/26 17:25:06;;;;;;;3.63;3.17;;;19.30;95.90;;;;;;4927666;29;20474;-84
2022/10/26 17:28:18;;;;;;;6.43;3.13;;;19.40;95.90;;;;;;4948264;28;20454;-85
2022/10/26 17:31:42;;;;;;;6.70;4.93;;;19.40;95.70;;;;;;4933473;29;20920;-81
2022/10/26 17:35:00;;;;;;;2.83;2.63;;;19.30;95.70;;;;;;4926934;29;20498;-83
2022/10/26 17:38:12;;;;;;;4.00;3.40;;;19.20;96.10;;;;;;4874250;29;20457;-85
2022/10/26 17:44:43;;;;;;;2.90;2.17;;;19.20;96.80;;;;;;4719127;30;20464;-84
2022/10/26 17:47:51;;;;;;;4.67;3.63;;;19.60;95.50;;;;;;4765414;30;20457;-85
2022/10/26 17:50:50;;;;;;;5.37;3.47;;;19.30;95.70;;;;;;4791162;29;20546;-84
2022/10/26 18:04:47;;;;;;;;;;;;;;;;;;;;;
2022/10/26 18:11:32;;;;;;;6.53;4.30;;;19.10;96.40;;;;;;4657486;30;20562;-83
2022/10/26 18:14:45;;;;;;;7.70;5.70;;;19.00;97.00;;;;;;4677962;30;20562;-84
2022/10/26 18:17:34;;;;;;;8.33;4.50;;;18.80;97.40;;;;;;4731673;30;20478;-84
2022/10/26 18:23:18;;;;;;;9.20;5.53;;;18.80;97.90;;;;;;4785299;29;20482;-83
2022/10/26 18:26:15;;;;;;;5.60;4.60;;;18.80;97.80;;;;;;4775012;30;20480;-85
2022/10/26 18:28:51;;;;;;;10.37;5.03;;;18.70;98.00;;;;;;4775458;30;20476;-84
2022/10/26 18:31:48;;;;;;;6.17;4.60;;;18.60;98.30;;;;;;4782135;29;20469;-83
2022/10/26 18:35:01;;;;;;;9.67;5.03;;;18.60;98.40;;;;;;4769535;29;20492;-83
2022/10/26 18:38:06;;;;;;;5.53;4.47;;;18.60;98.50;;;;;;4867545;29;20460;-84
2022/10/26 18:41:01;;;;;;;4.00;2.60;;;18.50;98.60;;;;;;5068842;23;21219;-83
2022/10/26 18:44:00;;;;;;;5.57;4.17;;;18.50;98.70;;;;;;5009192;28;21139;-83
2022/10/26 18:47:15;;;;;;;5.67;5.00;;;18.60;98.30;;;;;;4985556;28;20524;-84
2022/10/26 18:50:54;;;;;;;4.87;3.63;;;18.60;98.60;;;;;;5004453;28;20480;-84
2022/10/26 18:54:33;;;;;;;;;;;;;;;;;;;;;
2022/10/26 18:57:38;;;;;;;6.27;4.47;;;18.50;98.60;;;;;;5016460;28;20513;-83
2022/10/26 19:08:04;;;;;;;8.50;4.23;;;18.30;99.40;;;;;;5014280;28;20459;-83
2022/10/26 19:10:59;;;;;;;7.50;4.70;;;18.30;99.60;;;;;;5047396;23;20515;-81
2022/10/26 19:14:11;;;;;;;6.40;4.47;;;18.20;99.70;;;;;;4957024;28;20590;-85
2022/10/26 19:17:32;;;;;;;5.73;4.60;;;18.20;99.90;;;;;;5015248;28;20673;-84
2022/10/26 19:24:47;;;;;;;5.23;4.20;;;18.10;99.90;;;;;;5016895;28;20466;-83
2022/10/26 19:27:54;;;;;;;5.97;5.37;;;18.10;99.90;;;;;;4992400;28;20517;-84
2022/10/26 19:30:39;;;;;;;8.47;5.37;;;18.10;99.90;;;;;;4998366;28;20478;-85
2022/10/26 19:40:36;;;;;;;7.20;5.20;;;17.90;99.90;;;;;;4938666;29;20452;-82
2022/10/26 19:43:59;;;;;;;6.77;4.93;;;17.90;99.90;;;;;;4936593;29;20465;-85
2022/10/26 19:46:44;;;;;;;8.57;5.30;;;17.80;99.90;;;;;;4946266;29;20441;-84
2022/10/26 19:49:56;;;;;;;8.60;4.40;;;17.90;99.90;;;;;;4955160;29;20449;-83
2022/10/26 19:56:32;;;;;;;4.20;3.80;;;17.90;99.90;;;;;;4925078;29;20488;-83
2022/10/26 19:59:40;;;;;;;5.37;4.27;;;17.80;99.90;;;;;;4938363;29;20473;-85
2022/10/26 20:02:24;;;;;;;7.10;3.43;;;17.80;99.90;;;;;;4930596;29;20474;-83
2022/10/26 20:05:11;;;;;;;5.43;3.70;;;17.80;99.90;;;;;;4935048;29;20441;-82
2022/10/26 20:08:08;;;;;;;4.87;3.53;;;17.70;99.90;;;;;;4929605;29;20488;-83
2022/10/26 20:11:04;;;;;;;4.90;4.07;;;17.70;99.90;;;;;;4926660;29;20577;-82
2022/10/26 20:14:00;;;;;;;;;;;;;;;;;;;;;
2022/10/26 20:17:08;;;;;;;5.47;2.90;;;17.60;99.90;;;;;;4943667;28;20501;-84
2022/10/26 20:24:24;;;;;;;3.80;2.60;;;17.90;99.90;;;;;;4999421;28;20462;-82
2022/10/26 20:27:15;;;;;;;2.80;2.50;;;18.10;99.90;;;;;;5010853;28;20464;-83
2022/10/26 20:30:05;;;;;;;6.70;3.57;;;18.00;99.90;;;;;;4997948;28;20537;-83
2022/10/26 20:39:17;;;;;;;8.37;3.33;;;17.70;99.90;;;;;;4929736;29;20460;-82
2022/10/26 20:41:52;;;;;;;5.63;3.30;;;17.70;99.90;;;;;;4962594;28;20455;-83
2022/10/26 20:44:39;;;;;;;5.53;3.60;;;17.80;99.90;;;;;;4957680;28;20463;-84
2022/10/26 20:47:21;;;;;;;8.90;4.10;;;17.90;99.90;;;;;;4931823;29;20452;-85
2022/10/26 20:50:05;;;;;;;4.77;3.13;;;18.00;99.90;;;;;;4936141;29;20477;-83
2022/10/26 20:53:10;;;;;;;4.50;2.73;;;17.90;99.90;;;;;;4932484;29;20452;-84
2022/10/26 20:56:21;;;;;;;3.90;2.97;;;18.00;99.90;;;;;;4948467;29;20449;-84
2022/10/26 20:59:29;;;;;;;7.83;3.37;;;17.80;99.90;;;;;;4941931;29;20577;-84
2022/10/26 21:02:21;;;;;;;3.10;2.80;;;17.80;99.90;;;;;;4941331;29;20453;-85
2022/10/26 21:05:05;;;;;;;4.30;3.10;;;17.60;99.90;;;;;;4928085;29;20463;-83
2022/10/26 21:07:54;;;;;;;4.00;2.70;;;17.60;99.90;;;;;;4931538;29;20492;-82
2022/10/26 21:10:52;;;;;;;5.23;2.80;;;17.50;99.90;;;;;;4954176;29;20504;-83
2022/10/26 21:13:47;;;;;;;2.30;2.10;;;17.60;99.90;;;;;;4984606;28;20502;-83
2022/10/26 21:16:56;;;;;;;4.70;2.80;;;17.70;99.90;;;;;;4993062;28;20472;-82
2022/10/26 21:22:25;;;;;;;3.13;2.93;;;17.80;99.90;;;;;;5062867;23;20504;-83
2022/10/26 21:25:19;;;;;;;4.83;2.33;;;18.00;99.90;;;;;;4996876;28;20476;-84
2022/10/26 21:28:09;;;;;;;3.10;2.00;;;17.80;99.90;;;;;;4987918;28;20458;-84
2022/10/26 21:30:53;;;;;;;5.73;2.40;;;17.80;99.90;;;;;;4973541;28;20447;-84
2022/10/26 21:33:35;;;;;;;3.03;2.40;;;17.80;99.90;;;;;;4978069;28;20482;-84
2022/10/26 21:36:19;;;;;;;2.70;1.97;;;18.00;99.90;;;;;;4962089;28;20487;-84
2022/10/26 21:39:19;;;;;;;2.97;2.43;;;18.00;99.90;;;;;;5014840;23;21138;-84
2022/10/26 21:42:13;;;;;;;1.93;1.83;;;17.90;99.90;;;;;;4986030;28;20459;-83
2022/10/26 21:44:56;;;;;;;3.70;3.03;;;17.80;99.90;;;;;;4970590;28;20455;-84